Time;durP1;ratioP1;P1;durP2;ratioP2;P2;SDS_P1;SDS_P2;PMS_P1;PMS_P2;Temp;Humidity;BMP_temperature;BMP_pressure;BME280_temperature;BME280_humidity;BME280_pressure;Samples;Min_cycle;Max_cycle;Signal;HPM_P1;HPM_P2
2022/12/18 00:00:01;;;;;;;;;;;;;;;25.31;40.57;94924.25;4830417;29;7223;-57
2022/12/18 00:02:37;;;;;;;;;;;;;;;25.31;40.67;94910.50;4826973;29;7528;-57
2022/12/18 00:05:03;;;;;;;;;;;;;;;25.31;40.59;94913.25;4853465;29;7335;-57
2022/12/18 00:07:29;;;;;;;;;;;;;;;25.28;40.50;94908.72;4841796;29;7400;-56
2022/12/18 00:09:55;;;;;;;;;;;;;;;25.30;40.74;94911.72;4837745;29;7092;-56
2022/12/18 00:12:21;;;;;;;;;;;;;;;25.28;40.72;94898.47;4853031;29;8885;-56
2022/12/18 00:14:48;;;;;;;;;;;;;;;25.29;40.73;94904.72;4863399;29;7030;-57
2022/12/18 00:17:43;;;;;;;;;;;;;;;25.30;41.42;94920.75;4883600;29;7345;-57
2022/12/18 00:20:44;;;;;;;;;;;;;;;25.30;41.33;94925.50;4822992;29;6970;-57
2022/12/18 00:23:41;;;;;;;;;;;;;;;25.30;40.98;94939.25;4858638;29;7243;-56
2022/12/18 00:26:22;;;;;;;;;;;;;;;25.30;40.78;94945.53;4858782;29;7034;-57
2022/12/18 00:29:09;;;;;;;;;;;;;;;25.30;41.10;94955.78;4870284;29;7419;-57
2022/12/18 00:31:53;;;;;;;;;;;;;;;25.30;41.19;94955.78;4887639;29;7073;-56
2022/12/18 00:34:19;;;;;;;;;;;;;;;25.30;40.47;94961.28;4886126;29;7904;-57
2022/12/18 00:36:50;;;;;;;;;;;;;;;25.28;40.74;94967.28;4881827;29;8012;-56
2022/12/18 00:39:26;;;;;;;;;;;;;;;25.28;40.93;94966.53;4882267;29;7301;-57
2022/12/18 00:44:49;;;;;;;;;;;;;;;25.27;40.58;94946.50;4889530;29;7533;-56
2022/12/18 00:47:29;;;;;;;;;;;;;;;25.28;40.28;94947.25;4883990;29;10085;-57
2022/12/18 00:49:55;;;;;;;;;;;;;;;25.28;40.88;94944.50;4900413;29;9070;-57
2022/12/18 00:52:21;;;;;;;;;;;;;;;25.27;40.60;94940.25;4881241;29;7813;-57
2022/12/18 00:55:03;;;;;;;;;;;;;;;25.27;40.89;94932.72;4892424;29;7011;-58
2022/12/18 00:57:35;;;;;;;;;;;;;;;25.26;40.69;94936.75;4949561;28;9299;-57
2022/12/18 01:00:14;;;;;;;;;;;;;;;25.28;40.80;94937.00;4948692;28;8988;-58
2022/12/18 01:02:47;;;;;;;;;;;;;;;25.28;40.44;94944.50;4972621;28;9417;-57
2022/12/18 01:05:17;;;;;;;;;;;;;;;25.27;40.41;94943.03;4949160;28;7029;-57
2022/12/18 01:07:43;;;;;;;;;;;;;;;25.28;40.44;94952.78;4950062;28;10389;-56
2022/12/18 01:10:12;;;;;;;;;;;;;;;25.26;40.32;94956.03;4957856;28;7073;-58
2022/12/18 01:12:42;;;;;;;;;;;;;;;25.27;40.80;94949.25;4956445;28;7245;-57
2022/12/18 01:15:21;;;;;;;;;;;;;;;25.26;40.40;94952.50;4968129;28;8677;-57
2022/12/18 01:17:52;;;;;;;;;;;;;;;25.26;40.08;94952.50;4952344;28;7211;-56
2022/12/18 01:20:24;;;;;;;;;;;;;;;25.27;40.80;94954.75;4969820;28;7245;-57
2022/12/18 01:22:52;;;;;;;;;;;;;;;25.28;41.01;94955.53;4942252;28;7110;-57
2022/12/18 01:25:44;;;;;;;;;;;;;;;25.29;40.92;94955.03;4969441;28;7140;-57
2022/12/18 01:28:13;;;;;;;;;;;;;;;25.27;40.57;94956.78;4966470;28;7232;-57
2022/12/18 01:30:49;;;;;;;;;;;;;;;25.28;40.25;94958.28;4954567;28;7345;-56
2022/12/18 01:33:33;;;;;;;;;;;;;;;25.28;40.67;94966.53;4971893;28;8798;-56
2022/12/18 01:36:03;;;;;;;;;;;;;;;25.27;40.12;94967.81;4950146;29;6980;-57
2022/12/18 01:38:41;;;;;;;;;;;;;;;25.27;40.28;94981.56;4968543;28;7272;-56
2022/12/18 01:44:57;;;;;;;;;;;;;;;25.27;39.95;94978.81;4893864;29;8608;-56
2022/12/18 01:47:35;;;;;;;;;;;;;;;25.27;40.47;94976.06;4877334;29;7837;-56
2022/12/18 01:50:42;;;;;;;;;;;;;;;25.28;40.38;94980.31;4892377;29;7091;-56
2022/12/18 01:53:24;;;;;;;;;;;;;;;25.27;40.20;94974.03;4840986;29;7856;-57
2022/12/18 01:56:25;;;;;;;;;;;;;;;25.28;39.86;94969.28;4842903;29;7369;-57
2022/12/18 01:59:04;;;;;;;;;;;;;;;25.28;40.12;94977.53;4842098;29;7170;-56
2022/12/18 02:01:32;;;;;;;;;;;;;;;25.28;40.48;94986.56;4848863;29;7446;-56
2022/12/18 02:04:33;;;;;;;;;;;;;;;25.29;39.94;94992.84;4863557;29;7269;-57
2022/12/18 02:07:14;;;;;;;;;;;;;;;25.28;40.50;95002.31;4789789;29;9236;-57
2022/12/18 02:09:52;;;;;;;;;;;;;;;25.27;40.74;94987.06;4790734;29;9028;-57
2022/12/18 02:12:24;;;;;;;;;;;;;;;25.27;40.43;94984.31;4810043;29;9344;-56
2022/12/18 02:18:35;;;;;;;;;;;;;;;25.28;40.39;94985.81;4774177;30;7455;-56
2022/12/18 02:21:39;;;;;;;;;;;;;;;25.28;39.93;94983.06;5108481;27;6715;-54
2022/12/18 02:24:17;;;;;;;;;;;;;;;25.29;39.91;94984.56;5087376;28;8991;-55
2022/12/18 02:27:21;;;;;;;;;;;;;;;25.29;40.57;94976.31;5082052;28;9627;-55
2022/12/18 02:30:03;;;;;;;;;;;;;;;25.29;40.64;94995.59;5017986;28;7989;-54
2022/12/18 02:33:03;;;;;;;;;;;;;;;25.28;40.82;94991.31;5021343;28;8709;-54
2022/12/18 02:35:35;;;;;;;;;;;;;;;25.26;40.73;94993.81;4931915;29;6990;-54
2022/12/18 02:38:12;;;;;;;;;;;;;;;25.26;40.22;94999.31;4946820;29;9649;-55
2022/12/18 02:40:42;;;;;;;;;;;;;;;25.25;40.02;94992.31;4941945;29;9679;-54
2022/12/18 02:43:25;;;;;;;;;;;;;;;25.27;40.15;94993.31;4945590;29;7843;-55
2022/12/18 02:46:30;;;;;;;;;;;;;;;25.27;39.85;94998.09;4930290;29;8668;-54
2022/12/18 02:49:12;;;;;;;;;;;;;;;25.26;40.14;94988.31;4923871;29;7002;-55
2022/12/18 02:52:15;;;;;;;;;;;;;;;25.26;40.72;94988.31;4930495;29;7034;-54
2022/12/18 02:55:23;;;;;;;;;;;;;;;25.24;40.74;94985.28;4930972;29;9066;-55
2022/12/18 02:57:56;;;;;;;;;;;;;;;25.24;40.04;94986.06;4896771;29;7208;-54
2022/12/18 03:00:58;;;;;;;;;;;;;;;25.25;40.27;94989.56;4895393;29;9022;-54
2022/12/18 03:03:57;;;;;;;;;;;;;;;25.26;39.64;94991.06;4885748;29;7156;-56
2022/12/18 03:06:45;;;;;;;;;;;;;;;25.24;39.95;94991.56;4892424;29;10479;-55
2022/12/18 03:09:25;;;;;;;;;;;;;;;25.26;40.13;94996.56;4867570;29;9156;-55
2022/12/18 03:15:28;;;;;;;;;;;;;;;25.26;39.72;94991.06;4922771;29;9705;-55
2022/12/18 03:18:19;;;;;;;;;;;;;;;25.25;40.78;94993.06;4885592;29;6995;-56
2022/12/18 03:20:53;;;;;;;;;;;;;;;25.25;40.09;94989.56;4874453;29;7204;-55
2022/12/18 03:23:27;;;;;;;;;;;;;;;25.24;40.05;94990.81;4868319;29;9694;-55
2022/12/18 03:25:59;;;;;;;;;;;;;;;25.25;39.78;95006.09;4875286;29;8883;-55
2022/12/18 03:28:49;;;;;;;;;;;;;;;25.25;40.09;95008.84;4883819;29;7047;-55
2022/12/18 03:31:35;;;;;;;;;;;;;;;25.24;40.10;95012.81;4886587;29;7230;-54
2022/12/18 03:34:26;;;;;;;;;;;;;;;25.22;40.20;95016.09;4888436;29;8994;-55
2022/12/18 03:37:49;;;;;;;;;;;;;;;25.24;39.66;95018.34;4894515;29;9056;-55
2022/12/18 03:40:15;;;;;;;;;;;;;;;25.22;40.43;95018.06;4892990;29;9727;-55
2022/12/18 03:43:10;;;;;;;;;;;;;;;25.23;40.25;95027.81;4914804;29;7562;-55
2022/12/18 03:46:22;;;;;;;;;;;;;;;25.21;40.72;95020.06;4878951;29;7038;-55
2022/12/18 03:49:07;;;;;;;;;;;;;;;25.22;39.82;95031.84;4842509;29;9059;-55
2022/12/18 03:52:05;;;;;;;;;;;;;;;25.23;40.59;95034.09;4861781;29;7104;-55
2022/12/18 03:54:45;;;;;;;;;;;;;;;25.22;40.64;95031.84;4858769;29;7354;-56
2022/12/18 03:57:27;;;;;;;;;;;;;;;25.22;39.74;95032.59;4845398;29;7044;-55
2022/12/18 04:00:05;;;;;;;;;;;;;;;25.22;40.10;95048.34;4855825;29;7272;-55
2022/12/18 04:02:47;;;;;;;;;;;;;;;25.21;40.28;95047.59;4863359;29;9025;-56
2022/12/18 04:05:48;;;;;;;;;;;;;;;25.20;40.54;95048.84;4861526;29;9788;-56
2022/12/18 04:08:15;;;;;;;;;;;;;;;25.19;40.26;95052.84;4821606;29;8589;-57
2022/12/18 04:10:52;;;;;;;;;;;;;;;25.22;39.78;95053.88;4832976;29;7058;-57
2022/12/18 04:13:32;;;;;;;;;;;;;;;25.23;40.26;95058.09;4821422;29;7266;-56
2022/12/18 04:16:39;;;;;;;;;;;;;;;25.22;40.62;95060.13;4823091;29;7082;-57
2022/12/18 04:19:35;;;;;;;;;;;;;;;25.20;40.44;95048.84;4821874;29;7023;-57
2022/12/18 04:22:00;;;;;;;;;;;;;;;25.20;40.71;95048.84;4778694;29;8429;-57
2022/12/18 04:24:31;;;;;;;;;;;;;;;25.19;40.07;95049.34;4802702;29;7214;-57
2022/12/18 04:26:59;;;;;;;;;;;;;;;25.17;40.08;95047.06;4823110;29;9354;-56
2022/12/18 04:29:44;;;;;;;;;;;;;;;25.20;40.40;95056.34;4821933;29;7025;-56
2022/12/18 04:32:19;;;;;;;;;;;;;;;25.19;40.47;95063.84;4842862;29;7065;-57
2022/12/18 04:34:46;;;;;;;;;;;;;;;25.19;39.75;95066.59;4838780;29;7036;-57
2022/12/18 04:37:22;;;;;;;;;;;;;;;25.18;40.74;95076.13;4844918;29;9381;-57
2022/12/18 04:40:04;;;;;;;;;;;;;;;25.20;40.08;95079.16;4857853;29;9276;-56
2022/12/18 04:42:31;;;;;;;;;;;;;;;25.18;39.78;95078.88;4851675;29;7229;-57
2022/12/18 04:45:08;;;;;;;;;;;;;;;25.21;40.20;95079.88;4941454;28;8106;-57
2022/12/18 04:48:03;;;;;;;;;;;;;;;25.21;39.65;95079.88;4935984;28;7028;-57
2022/12/18 04:50:40;;;;;;;;;;;;;;;25.22;40.18;95081.41;4944759;28;7025;-56
2022/12/18 04:53:06;;;;;;;;;;;;;;;25.20;39.95;95079.16;4941452;28;7491;-57
2022/12/18 04:55:42;;;;;;;;;;;;;;;25.20;39.58;95070.88;4945675;28;7016;-56
2022/12/18 04:58:14;;;;;;;;;;;;;;;25.21;39.79;95079.88;4972458;28;7816;-57
2022/12/18 05:00:45;;;;;;;;;;;;;;;25.21;40.44;95079.88;5027351;28;7285;-56
2022/12/18 05:03:13;;;;;;;;;;;;;;;25.20;39.96;95084.66;5031388;28;7253;-57
2022/12/18 05:05:51;;;;;;;;;;;;;;;25.19;40.24;95088.63;5033675;28;8965;-56
2022/12/18 05:08:18;;;;;;;;;;;;;;;25.20;39.99;95086.63;5050712;28;8865;-56
2022/12/18 05:10:44;;;;;;;;;;;;;;;25.20;40.33;95084.66;5038001;28;7259;-56
2022/12/18 05:13:11;;;;;;;;;;;;;;;25.20;39.85;95090.16;5050164;28;7289;-56
2022/12/18 05:15:41;;;;;;;;;;;;;;;25.21;40.55;95079.88;5028296;28;7273;-56
2022/12/18 05:18:12;;;;;;;;;;;;;;;25.21;40.40;95071.63;5035311;28;9042;-57
2022/12/18 05:20:37;;;;;;;;;;;;;;;25.22;39.80;95078.66;5046903;28;10135;-56
2022/12/18 05:23:06;;;;;;;;;;;;;;;25.19;40.26;95079.63;5052464;28;7189;-57
2022/12/18 05:25:36;;;;;;;;;;;;;;;25.17;40.07;95074.59;5051841;28;7072;-57
2022/12/18 05:28:07;;;;;;;;;;;;;;;25.19;40.60;95088.63;5040089;28;7069;-57
2022/12/18 05:30:34;;;;;;;;;;;;;;;25.19;40.22;95076.84;5052667;28;7288;-56
2022/12/18 05:33:09;;;;;;;;;;;;;;;25.19;40.30;95076.84;5051362;28;7042;-56
2022/12/18 05:35:38;;;;;;;;;;;;;;;25.20;40.29;95075.63;5028952;28;7448;-56
2022/12/18 05:38:17;;;;;;;;;;;;;;;25.21;40.55;95074.38;5052287;28;9047;-57
2022/12/18 05:40:52;;;;;;;;;;;;;;;25.21;40.09;95075.13;5067775;28;7347;-57
2022/12/18 05:43:24;;;;;;;;;;;;;;;25.22;40.30;95078.66;5029567;28;7418;-56
2022/12/18 05:45:51;;;;;;;;;;;;;;;25.18;39.66;95070.63;5051451;28;7602;-56
2022/12/18 05:48:24;;;;;;;;;;;;;;;25.19;40.09;95080.38;5044228;28;7409;-56
2022/12/18 05:50:53;;;;;;;;;;;;;;;25.19;39.67;95082.38;5026252;28;7277;-57
2022/12/18 05:53:28;;;;;;;;;;;;;;;25.17;40.25;95073.84;5033479;28;7090;-58
2022/12/18 05:56:00;;;;;;;;;;;;;;;25.17;40.17;95080.13;5050196;28;9050;-56
2022/12/18 05:58:39;;;;;;;;;;;;;;;25.19;40.21;95076.84;5027722;28;7440;-56
2022/12/18 06:01:25;;;;;;;;;;;;;;;25.19;40.39;95082.38;5052514;28;9444;-56
2022/12/18 06:03:53;;;;;;;;;;;;;;;25.17;40.03;95079.34;5048872;28;7488;-56
2022/12/18 06:06:28;;;;;;;;;;;;;;;25.21;39.62;95082.63;5032383;28;8581;-57
2022/12/18 06:08:56;;;;;;;;;;;;;;;25.20;40.31;95076.38;5051508;28;7277;-57
2022/12/18 06:11:32;;;;;;;;;;;;;;;25.21;40.14;95083.38;5046679;28;7346;-56
2022/12/18 06:14:25;;;;;;;;;;;;;;;25.22;39.71;95081.41;5044464;28;7262;-56
2022/12/18 06:17:05;;;;;;;;;;;;;;;25.21;39.98;95088.13;5050272;28;7143;-56
2022/12/18 06:19:33;;;;;;;;;;;;;;;25.21;40.32;95085.38;5033078;28;7249;-57
2022/12/18 06:21:59;;;;;;;;;;;;;;;25.19;40.49;95088.63;5043191;28;7335;-57
2022/12/18 06:24:27;;;;;;;;;;;;;;;25.20;39.81;95092.91;5050991;28;7191;-56
2022/12/18 06:26:53;;;;;;;;;;;;;;;25.19;39.83;95104.38;5050999;28;7240;-56
2022/12/18 06:29:23;;;;;;;;;;;;;;;25.20;39.71;95103.91;5053252;28;7296;-56
2022/12/18 06:31:55;;;;;;;;;;;;;;;25.20;40.29;95111.41;5034207;28;7463;-57
2022/12/18 06:34:36;;;;;;;;;;;;;;;25.18;39.85;95108.41;5031550;28;7239;-57
2022/12/18 06:37:08;;;;;;;;;;;;;;;25.20;39.82;95112.19;5031692;28;7112;-56
2022/12/18 06:39:37;;;;;;;;;;;;;;;25.20;40.29;95112.19;5061601;28;7281;-56
2022/12/18 06:42:09;;;;;;;;;;;;;;;25.21;40.57;95115.66;5026743;28;9295;-57
2022/12/18 06:44:49;;;;;;;;;;;;;;;25.19;40.12;95113.41;5049082;28;7050;-56
2022/12/18 06:47:21;;;;;;;;;;;;;;;25.25;39.84;95113.47;5033522;28;7058;-56
2022/12/18 06:49:49;;;;;;;;;;;;;;;25.32;39.62;95115.75;5051162;28;7303;-56
2022/12/18 06:52:28;;;;;;;;;;;;;;;25.31;39.63;95117.00;5046677;28;9067;-56
2022/12/18 06:55:03;;;;;;;;;;;;;;;25.36;40.03;95119.78;5049300;28;7259;-56
2022/12/18 06:57:33;;;;;;;;;;;;;;;25.38;39.64;95130.31;5047183;28;7112;-57
2022/12/18 07:00:50;;;;;;;;;;;;;;;25.41;39.28;95138.34;5049497;28;7829;-58
2022/12/18 07:03:43;;;;;;;;;;;;;;;25.43;39.43;95146.88;5047918;28;7297;-56
2022/12/18 07:06:33;;;;;;;;;;;;;;;25.44;39.21;95147.66;5050031;28;7170;-58
2022/12/18 07:09:02;;;;;;;;;;;;;;;25.46;39.26;95149.91;5030884;28;9480;-56
2022/12/18 07:11:36;;;;;;;;;;;;;;;25.46;39.82;95158.16;5050920;28;9554;-57
2022/12/18 07:14:03;;;;;;;;;;;;;;;25.47;39.34;95156.94;5033470;28;7609;-57
2022/12/18 07:16:44;;;;;;;;;;;;;;;25.46;39.53;95160.91;5051450;28;7377;-56
2022/12/18 07:19:19;;;;;;;;;;;;;;;25.48;38.94;95164.69;5063882;28;9420;-56
2022/12/18 07:21:49;;;;;;;;;;;;;;;25.47;39.17;95170.72;5053078;28;7204;-57
2022/12/18 07:24:15;;;;;;;;;;;;;;;25.45;39.70;95171.19;5051453;28;9391;-56
2022/12/18 07:26:44;;;;;;;;;;;;;;;25.47;39.02;95176.22;5053948;28;6992;-57
2022/12/18 07:29:13;;;;;;;;;;;;;;;25.48;39.55;95180.47;5071326;28;7287;-56
2022/12/18 07:31:51;;;;;;;;;;;;;;;25.50;39.48;95183.47;5029680;28;7010;-56
2022/12/18 07:34:17;;;;;;;;;;;;;;;25.50;39.37;95183.47;5041388;28;8509;-57
2022/12/18 07:36:43;;;;;;;;;;;;;;;25.51;39.95;95187.75;5049272;28;7256;-58
2022/12/18 07:39:15;;;;;;;;;;;;;;;25.48;39.14;95192.25;5053578;28;7261;-57
2022/12/18 07:42:30;;;;;;;;;;;;;;;25.48;40.00;95186.72;5058357;28;7182;-57
2022/12/18 07:44:37;;;;;;;;;;;;;;;25.49;39.71;95188.22;5046123;28;7272;-56
2022/12/18 07:47:05;;;;;;;;;;;;;;;25.46;40.07;95194.72;5044914;28;7025;-57
2022/12/18 07:49:31;;;;;;;;;;;;;;;25.47;39.89;95195.50;5030922;28;6995;-57
2022/12/18 07:51:58;;;;;;;;;;;;;;;25.45;40.04;95184.94;5036724;28;7539;-56
2022/12/18 07:54:34;;;;;;;;;;;;;;;25.42;39.79;95185.94;5047537;28;7147;-56
2022/12/18 07:57:07;;;;;;;;;;;;;;;25.41;39.91;95179.66;5031248;28;9388;-58
2022/12/18 07:59:33;;;;;;;;;;;;;;;25.39;40.19;95187.66;5027974;28;7477;-56
2022/12/18 08:01:59;;;;;;;;;;;;;;;25.38;40.22;95190.91;5033907;28;7036;-56
2022/12/18 08:04:27;;;;;;;;;;;;;;;25.41;40.47;95192.66;5055060;28;7017;-58
2022/12/18 08:07:02;;;;;;;;;;;;;;;25.39;40.09;95201.41;5047133;28;7460;-55
2022/12/18 08:09:30;;;;;;;;;;;;;;;25.43;40.23;95201.97;5063049;28;7707;-56
2022/12/18 08:11:56;;;;;;;;;;;;;;;25.46;39.96;95194.72;5062149;28;8995;-56
2022/12/18 08:14:24;;;;;;;;;;;;;;;25.49;39.30;95201.25;5048414;28;7526;-57
2022/12/18 08:16:52;;;;;;;;;;;;;;;25.52;39.23;95201.03;5049817;28;7446;-56
2022/12/18 08:19:23;;;;;;;;;;;;;;;25.52;39.56;95212.03;5049428;28;7133;-56
2022/12/18 08:21:49;;;;;;;;;;;;;;;25.51;39.36;95207.03;5034027;28;7036;-56
2022/12/18 08:24:15;;;;;;;;;;;;;;;25.51;39.17;95207.78;5024123;28;7029;-56
2022/12/18 08:26:41;;;;;;;;;;;;;;;25.52;38.67;95214.03;5046287;28;9260;-57
2022/12/18 08:29:11;;;;;;;;;;;;;;;25.50;38.59;95213.78;5035548;28;9154;-57
2022/12/18 08:32:08;;;;;;;;;;;;;;;25.45;39.10;95223.50;5052894;28;7267;-56
2022/12/18 08:34:39;;;;;;;;;;;;;;;25.40;39.07;95218.69;4986290;28;7203;-56
2022/12/18 08:37:08;;;;;;;;;;;;;;;25.35;40.03;95216.66;4994525;28;7341;-57
2022/12/18 08:39:46;;;;;;;;;;;;;;;25.31;39.97;95222.41;4983957;28;7274;-58
2022/12/18 08:44:57;;;;;;;;;;;;;;;25.29;39.91;95227.59;5003555;28;7721;-57
2022/12/18 08:47:32;;;;;;;;;;;;;;;25.26;40.84;95222.34;4998597;28;7274;-56
2022/12/18 08:49:58;;;;;;;;;;;;;;;25.27;40.45;95221.09;5016171;28;7447;-57
2022/12/18 08:52:24;;;;;;;;;;;;;;;25.27;40.23;95227.34;4986045;28;9082;-56
2022/12/18 08:54:59;;;;;;;;;;;;;;;25.26;40.57;95227.84;4992160;28;7029;-57
2022/12/18 08:57:29;;;;;;;;;;;;;;;25.29;40.39;95229.63;4982862;28;7245;-56
2022/12/18 08:59:57;;;;;;;;;;;;;;;25.29;40.36;95232.38;5000706;28;8974;-58
2022/12/18 09:02:26;;;;;;;;;;;;;;;25.28;40.88;95217.09;4986199;28;7053;-59
2022/12/18 09:04:52;;;;;;;;;;;;;;;25.31;40.50;95216.13;5002704;28;7271;-57
2022/12/18 09:07:31;;;;;;;;;;;;;;;25.31;41.03;95207.88;4985111;28;7191;-57
2022/12/18 09:10:04;;;;;;;;;;;;;;;25.29;40.55;95204.84;5001220;28;8209;-58
2022/12/18 09:12:39;;;;;;;;;;;;;;;25.27;41.07;95201.84;5050761;28;7298;-57
2022/12/18 09:15:14;;;;;;;;;;;;;;;25.28;40.87;95189.56;5050533;28;7148;-57
2022/12/18 09:17:49;;;;;;;;;;;;;;;25.28;40.14;95195.06;5035738;28;7288;-57
2022/12/18 09:20:19;;;;;;;;;;;;;;;25.28;40.62;95192.31;5033045;28;6956;-57
2022/12/18 09:22:47;;;;;;;;;;;;;;;25.26;40.69;95197.56;5033402;28;7204;-57
2022/12/18 09:25:13;;;;;;;;;;;;;;;25.28;41.01;95204.09;5046430;28;7111;-56
2022/12/18 09:27:39;;;;;;;;;;;;;;;25.32;40.90;95201.09;5049263;28;10150;-57
2022/12/18 09:30:12;;;;;;;;;;;;;;;25.30;40.99;95198.84;5060048;28;8914;-56
2022/12/18 09:32:43;;;;;;;;;;;;;;;25.25;41.41;95193.31;5058849;28;6973;-57
2022/12/18 09:35:15;;;;;;;;;;;;;;;25.25;40.79;95196.06;5065248;28;7095;-56
2022/12/18 09:37:44;;;;;;;;;;;;;;;25.25;40.77;95196.06;5046897;28;7471;-57
2022/12/18 09:40:21;;;;;;;;;;;;;;;25.26;41.12;95198.31;5033364;28;7154;-56
2022/12/18 09:42:58;;;;;;;;;;;;;;;25.26;40.97;95198.31;5028428;28;7120;-56
2022/12/18 09:45:42;;;;;;;;;;;;;;;25.26;40.88;95192.03;5034930;28;8722;-56
2022/12/18 09:48:39;;;;;;;;;;;;;;;25.27;41.21;95188.06;5058616;28;8836;-57
2022/12/18 09:51:38;;;;;;;;;;;;;;;25.26;41.34;95192.81;5051211;28;7348;-57
2022/12/18 09:54:39;;;;;;;;;;;;;;;25.26;40.66;95190.06;5006919;28;9714;-58
2022/12/18 09:57:41;;;;;;;;;;;;;;;25.26;40.69;95192.03;4989659;28;9445;-57
2022/12/18 10:00:20;;;;;;;;;;;;;;;25.24;41.35;95195.31;4968565;28;6978;-57
2022/12/18 10:03:02;;;;;;;;;;;;;;;25.25;40.66;95193.31;4970985;28;7041;-57
2022/12/18 10:06:24;;;;;;;;;;;;;;;25.26;40.82;95192.81;4963380;28;7254;-58
2022/12/18 10:09:25;;;;;;;;;;;;;;;25.26;41.16;95194.81;4932477;28;6955;-57
2022/12/18 10:12:29;;;;;;;;;;;;;;;25.27;40.98;95193.56;4931530;29;7271;-59
2022/12/18 10:15:27;;;;;;;;;;;;;;;25.25;41.07;95207.81;4931326;29;9016;-56
2022/12/18 10:18:25;;;;;;;;;;;;;;;25.25;40.62;95205.06;4932510;29;7041;-57
2022/12/18 10:21:05;;;;;;;;;;;;;;;25.25;41.05;95213.31;4932783;29;7025;-56
2022/12/18 10:24:07;;;;;;;;;;;;;;;25.29;40.73;95204.84;4931648;29;7376;-56
2022/12/18 10:26:33;;;;;;;;;;;;;;;25.31;40.48;95208.63;4916762;29;8420;-56
2022/12/18 10:29:16;;;;;;;;;;;;;;;25.34;40.54;95206.88;4942122;28;7560;-57
2022/12/18 10:31:46;;;;;;;;;;;;;;;25.35;41.00;95203.66;4969555;28;8468;-56
2022/12/18 10:34:21;;;;;;;;;;;;;;;25.38;41.01;95210.91;4956601;28;7420;-57
2022/12/18 10:36:51;;;;;;;;;;;;;;;25.38;40.41;95208.16;4941451;28;6984;-56
2022/12/18 10:39:26;;;;;;;;;;;;;;;25.40;40.55;95207.69;4946986;28;9015;-56
2022/12/18 10:42:10;;;;;;;;;;;;;;;25.44;40.48;95224.78;4964859;28;10650;-56
2022/12/18 10:44:38;;;;;;;;;;;;;;;25.45;40.49;95214.50;4954101;28;7273;-56
2022/12/18 10:47:11;;;;;;;;;;;;;;;25.50;40.65;95216.53;5056445;28;7317;-57
2022/12/18 10:49:48;;;;;;;;;;;;;;;25.48;41.17;95217.03;5042528;28;7050;-57
2022/12/18 10:52:24;;;;;;;;;;;;;;;25.45;40.64;95218.00;5036916;28;8516;-57
2022/12/18 10:55:17;;;;;;;;;;;;;;;25.48;41.33;95208.75;5046559;28;7041;-56
2022/12/18 10:57:44;;;;;;;;;;;;;;;25.48;40.75;95206.00;5038322;28;7328;-55
2022/12/18 11:00:30;;;;;;;;;;;;;;;25.48;41.23;95219.78;5048322;28;7290;-56
2022/12/18 11:02:57;;;;;;;;;;;;;;;25.49;41.00;95226.78;5047723;28;9876;-55
2022/12/18 11:05:36;;;;;;;;;;;;;;;25.50;40.86;95228.31;5047883;28;7045;-56
2022/12/18 11:08:03;;;;;;;;;;;;;;;25.51;40.81;95229.06;5031230;28;8847;-56
2022/12/18 11:10:39;;;;;;;;;;;;;;;25.53;40.90;95226.56;5033478;28;7707;-56
2022/12/18 11:13:56;;;;;;;;;;;;;;;25.56;41.27;95231.84;5031816;28;7088;-58
2022/12/18 11:16:24;;;;;;;;;;;;;;;25.56;40.92;95220.84;5002418;28;7329;-56
2022/12/18 11:19:22;;;;;;;;;;;;;;;25.58;40.54;95214.84;5023193;28;7032;-57
2022/12/18 11:21:48;;;;;;;;;;;;;;;25.57;40.39;95208.59;5021056;28;7511;-56
2022/12/18 11:24:31;;;;;;;;;;;;;;;25.58;40.20;95204.56;4992073;28;7112;-55
2022/12/18 11:27:01;;;;;;;;;;;;;;;25.57;41.03;95200.31;5005421;28;8621;-56
2022/12/18 11:29:36;;;;;;;;;;;;;;;25.58;41.24;95190.78;4994964;28;8218;-56
2022/12/18 11:32:37;;;;;;;;;;;;;;;25.57;41.25;95186.53;4984214;28;7544;-57
2022/12/18 11:35:29;;;;;;;;;;;;;;;25.59;41.15;95189.56;4992902;28;7446;-57
2022/12/18 11:38:06;;;;;;;;;;;;;;;25.60;40.93;95182.78;5001170;28;7800;-56
2022/12/18 11:40:41;;;;;;;;;;;;;;;25.61;41.04;95176.03;5023971;28;9348;-56
2022/12/18 11:43:27;;;;;;;;;;;;;;;25.62;40.55;95174.78;4994504;28;6990;-57
2022/12/18 11:46:02;;;;;;;;;;;;;;;25.61;41.49;95156.75;5019196;28;7306;-56
2022/12/18 11:49:09;;;;;;;;;;;;;;;25.64;41.00;95157.78;5011151;28;7283;-57
2022/12/18 11:51:46;;;;;;;;;;;;;;;25.65;41.55;95162.78;5001828;28;6988;-55
2022/12/18 11:54:20;;;;;;;;;;;;;;;25.61;41.24;95165.03;5027553;28;10186;-56
2022/12/18 11:56:55;;;;;;;;;;;;;;;25.66;40.64;95158.03;5035192;28;7270;-56
2022/12/18 11:59:52;;;;;;;;;;;;;;;25.65;41.15;95154.53;5031038;28;7067;-57
2022/12/18 12:02:53;;;;;;;;;;;;;;;25.67;40.65;95156.78;5046017;28;7372;-56
2022/12/18 12:05:46;;;;;;;;;;;;;;;25.68;41.42;95163.81;5043639;28;8250;-56
2022/12/18 12:08:32;;;;;;;;;;;;;;;25.68;41.54;95172.06;5031197;28;7304;-56
2022/12/18 12:11:07;;;;;;;;;;;;;;;25.66;40.84;95171.81;5047707;28;9329;-57
2022/12/18 12:14:00;;;;;;;;;;;;;;;25.65;41.44;95171.06;5049358;28;7275;-57
2022/12/18 12:16:39;;;;;;;;;;;;;;;25.64;41.80;95177.81;5049179;28;7485;-57
2022/12/18 12:19:36;;;;;;;;;;;;;;;25.62;41.39;95176.81;5053779;28;8292;-56
2022/12/18 12:22:56;;;;;;;;;;;;;;;25.59;41.34;95169.50;5051234;28;8875;-58
2022/12/18 12:25:48;;;;;;;;;;;;;;;25.58;41.46;95165.28;5050516;28;7532;-58
2022/12/18 12:28:52;;;;;;;;;;;;;;;25.57;41.94;95163.75;5047295;28;7033;-57
2022/12/18 12:31:39;;;;;;;;;;;;;;;25.52;41.14;95151.44;5037116;28;7152;-57
2022/12/18 12:34:37;;;;;;;;;;;;;;;25.51;42.08;95157.47;5033636;28;7361;-57
2022/12/18 12:37:12;;;;;;;;;;;;;;;25.50;41.56;95153.19;5051362;28;7027;-57
2022/12/18 12:39:43;;;;;;;;;;;;;;;25.53;41.95;95147.47;5062987;28;9490;-56
2022/12/18 12:45:36;;;;;;;;;;;;;;;25.48;41.43;95141.91;5048656;28;9160;-58
2022/12/18 12:48:12;;;;;;;;;;;;;;;25.49;42.14;95144.16;5045702;28;8913;-57
2022/12/18 12:50:53;;;;;;;;;;;;;;;25.49;41.68;95143.44;5047653;28;7240;-56
2022/12/18 12:53:33;;;;;;;;;;;;;;;25.49;41.89;95132.41;5049938;28;7038;-57
2022/12/18 12:56:02;;;;;;;;;;;;;;;25.49;41.77;95124.88;5051242;28;9411;-57
2022/12/18 12:59:22;;;;;;;;;;;;;;;25.50;41.94;95129.16;5034094;28;8482;-56
2022/12/18 13:02:10;;;;;;;;;;;;;;;25.50;41.98;95123.63;4994987;28;8080;-57
2022/12/18 13:08:51;;;;;;;;;;;;;;;25.51;41.93;95119.66;4990988;28;7257;-57
2022/12/18 13:14:50;;;;;;;;;;;;;;;25.53;41.48;95117.16;4994022;28;7208;-56
2022/12/18 13:17:19;;;;;;;;;;;;;;;25.54;42.01;95131.66;4983979;28;7097;-56
2022/12/18 13:20:07;;;;;;;;;;;;;;;25.53;42.56;95130.94;4992813;28;9515;-57
2022/12/18 13:23:19;;;;;;;;;;;;;;;25.53;42.76;95133.69;4989891;28;9327;-57
2022/12/18 13:25:46;;;;;;;;;;;;;;;25.52;42.38;95139.66;4936117;28;7882;-56
2022/12/18 13:28:16;;;;;;;;;;;;;;;25.51;42.08;95135.41;4930953;28;8430;-56
2022/12/18 13:30:47;;;;;;;;;;;;;;;25.52;42.07;95132.16;4931702;29;7212;-59
2022/12/18 13:33:23;;;;;;;;;;;;;;;25.55;41.56;95147.72;4930197;28;7089;-58
2022/12/18 13:36:19;;;;;;;;;;;;;;;25.55;41.77;95150.47;4960415;28;8706;-56
2022/12/18 13:39:33;;;;;;;;;;;;;;;25.54;42.89;95139.94;4966596;28;8615;-56
2022/12/18 13:43:12;;;;;;;;;;;;;;;25.51;42.56;95141.69;4987888;28;7348;-57
2022/12/18 13:45:42;;;;;;;;;;;;;;;25.49;42.07;95144.16;4973779;28;9452;-56
2022/12/18 13:48:17;;;;;;;;;;;;;;;25.50;42.30;95144.91;4946841;28;7056;-57
2022/12/18 13:51:05;;;;;;;;;;;;;;;25.51;41.97;95147.19;4929258;29;7782;-56
2022/12/18 13:53:51;;;;;;;;;;;;;;;25.49;42.51;95144.16;4928438;29;7433;-56
2022/12/18 13:56:31;;;;;;;;;;;;;;;25.51;42.78;95140.94;4930948;29;6912;-56
2022/12/18 13:59:19;;;;;;;;;;;;;;;25.54;42.75;95154.47;4931887;29;7271;-56
2022/12/18 14:01:50;;;;;;;;;;;;;;;25.54;43.02;95148.94;4941925;28;7226;-56
2022/12/18 14:04:54;;;;;;;;;;;;;;;25.52;42.04;95148.69;4966146;28;7266;-57
2022/12/18 14:07:30;;;;;;;;;;;;;;;25.54;42.71;95151.72;4952179;28;9285;-56
2022/12/18 14:10:00;;;;;;;;;;;;;;;25.56;42.50;95143.69;4970888;28;7102;-56
2022/12/18 14:13:04;;;;;;;;;;;;;;;25.56;42.73;95148.44;4953882;28;7022;-57
2022/12/18 14:15:52;;;;;;;;;;;;;;;25.54;41.86;95151.72;4896290;29;7284;-56
2022/12/18 14:19:12;;;;;;;;;;;;;;;25.55;42.59;95153.22;4912441;29;7286;-56
2022/12/18 14:21:53;;;;;;;;;;;;;;;25.55;42.11;95150.47;4888301;29;7302;-57
2022/12/18 14:24:24;;;;;;;;;;;;;;;25.59;41.71;95144.72;4878219;29;7085;-56
2022/12/18 14:26:51;;;;;;;;;;;;;;;25.60;41.52;95151.75;4895924;29;7018;-56